createdAt,value
2018-07-11T00:01:16.036Z,12.53
2018-07-11T00:03:44.460Z,12.40
2018-07-11T00:06:11.936Z,13.40
2018-07-11T00:08:39.186Z,13.30
2018-07-11T00:11:06.444Z,12.33
2018-07-11T00:13:33.470Z,14.30
2018-07-11T00:16:00.531Z,12.17
2018-07-11T00:18:27.573Z,14.03
2018-07-11T00:20:54.648Z,14.90
2018-07-11T00:23:21.716Z,14.20
2018-07-11T00:25:48.967Z,13.60
2018-07-11T00:28:16.077Z,13.80
2018-07-11T00:30:43.145Z,13.60
2018-07-11T00:33:10.198Z,15.90
2018-07-11T00:35:37.269Z,14.90
2018-07-11T00:38:04.367Z,16.30
2018-07-11T00:40:31.457Z,17.00
2018-07-11T00:42:58.537Z,15.57
2018-07-11T00:45:25.623Z,16.53
2018-07-11T00:47:52.739Z,16.50
2018-07-11T00:50:20.037Z,17.63
2018-07-11T00:52:47.172Z,16.60
2018-07-11T00:55:14.247Z,18.47
2018-07-11T00:57:41.348Z,17.63
2018-07-11T01:00:08.408Z,16.63
2018-07-11T01:02:35.523Z,16.43
2018-07-11T01:05:02.580Z,17.20
2018-07-11T01:07:29.680Z,15.57
2018-07-11T01:09:56.773Z,16.17
2018-07-11T01:12:23.838Z,15.73
2018-07-11T01:14:50.868Z,16.97
2018-07-11T01:17:23.768Z,16.37
2018-07-11T01:19:50.896Z,16.10
2018-07-11T01:22:17.936Z,15.90
2018-07-11T01:24:44.996Z,16.90
2018-07-11T01:27:12.066Z,15.80
2018-07-11T01:29:39.188Z,18.50
2018-07-11T01:32:06.249Z,15.43
2018-07-11T01:34:33.361Z,16.70
2018-07-11T01:37:00.568Z,15.77
2018-07-11T01:39:27.664Z,14.93
2018-07-11T01:41:54.778Z,15.90
2018-07-11T01:44:21.856Z,16.60
2018-07-11T01:46:50.192Z,16.47
2018-07-11T01:49:17.331Z,16.23
2018-07-11T01:51:56.596Z,15.53
2018-07-11T01:54:23.833Z,15.33
2018-07-11T01:56:50.913Z,16.20
2018-07-11T01:59:18.075Z,16.00
2018-07-11T02:01:45.228Z,15.60
2018-07-11T02:04:12.343Z,14.80
2018-07-11T02:06:39.662Z,15.60
2018-07-11T02:09:06.737Z,15.43
2018-07-11T02:11:33.846Z,14.23
2018-07-11T02:14:01.205Z,14.53
2018-07-11T02:16:28.357Z,15.80
2018-07-11T02:18:55.462Z,15.83
2018-07-11T02:21:24.010Z,15.07
2018-07-11T02:23:51.190Z,15.03
2018-07-11T02:26:18.406Z,16.30
2018-07-11T02:28:45.473Z,15.80
2018-07-11T02:31:12.509Z,16.53
2018-07-11T02:33:39.592Z,15.30
2018-07-11T02:36:06.705Z,14.63
2018-07-11T02:38:33.810Z,15.77
2018-07-11T02:41:00.958Z,16.70
2018-07-11T02:43:28.065Z,17.03
2018-07-11T02:45:55.106Z,16.07
2018-07-11T02:48:22.218Z,16.87
2018-07-11T02:50:49.248Z,14.60
2018-07-11T02:53:20.929Z,14.70
2018-07-11T02:55:48.714Z,13.87
2018-07-11T02:58:15.815Z,15.37
2018-07-11T03:00:42.945Z,15.97
2018-07-11T03:03:10.044Z,15.17
2018-07-11T03:05:37.185Z,14.50
2018-07-11T03:08:04.477Z,14.83
2018-07-11T03:10:31.624Z,15.47
2018-07-11T03:12:58.690Z,15.63
2018-07-11T03:15:25.820Z,16.47
2018-07-11T03:17:52.907Z,17.50
2018-07-11T03:20:19.975Z,15.13
2018-07-11T03:22:47.067Z,15.13
2018-07-11T03:25:14.172Z,14.90
2018-07-11T03:27:41.248Z,15.33
2018-07-11T03:30:08.321Z,14.90
2018-07-11T03:32:35.434Z,15.60
2018-07-11T03:35:02.489Z,14.07
2018-07-11T03:37:29.589Z,14.10
2018-07-11T03:39:56.677Z,15.60
2018-07-11T03:42:23.755Z,14.07
2018-07-11T03:44:50.844Z,15.33
2018-07-11T03:47:17.894Z,13.80
2018-07-11T03:49:45.089Z,14.20
2018-07-11T03:52:12.157Z,15.97
2018-07-11T03:54:39.168Z,14.40
2018-07-11T03:57:06.243Z,14.73
2018-07-11T03:59:33.309Z,14.17
2018-07-11T04:02:00.351Z,14.60
2018-07-11T04:04:27.382Z,13.60
2018-07-11T04:06:54.431Z,13.63
2018-07-11T04:09:21.463Z,14.20
2018-07-11T04:11:48.512Z,13.30
2018-07-11T04:14:15.532Z,13.57
2018-07-11T04:16:42.592Z,14.63
2018-07-11T04:19:09.779Z,14.43
2018-07-11T04:21:36.753Z,14.67
2018-07-11T04:24:03.860Z,13.40
2018-07-11T04:26:30.937Z,13.20
2018-07-11T04:28:58.032Z,13.67
2018-07-11T04:31:25.129Z,12.67
2018-07-11T04:33:52.244Z,13.20
2018-07-11T04:36:19.349Z,12.93
2018-07-11T04:38:46.437Z,14.10
2018-07-11T04:41:13.549Z,16.23
2018-07-11T04:43:40.888Z,13.00
2018-07-11T04:46:07.992Z,14.03
2018-07-11T04:48:35.125Z,14.53
2018-07-11T05:07:45.705Z,14.60
2018-07-11T05:10:12.862Z,16.73
2018-07-11T05:12:39.943Z,15.20
2018-07-11T05:15:07.032Z,15.80
2018-07-11T05:17:34.084Z,15.87
2018-07-11T05:20:01.248Z,14.00
2018-07-11T05:22:28.324Z,14.60
2018-07-11T05:24:55.441Z,14.47
2018-07-11T05:27:22.451Z,15.23
2018-07-11T05:29:49.642Z,14.30
2018-07-11T05:32:22.323Z,14.00
2018-07-11T05:34:52.763Z,14.10
2018-07-11T05:37:21.332Z,14.23
2018-07-11T05:39:48.577Z,14.90
2018-07-11T05:42:15.908Z,13.43
2018-07-11T05:44:42.970Z,14.30
2018-07-11T05:47:10.066Z,14.03
2018-07-11T05:49:37.113Z,14.40
2018-07-11T05:52:04.322Z,13.87
2018-07-11T05:54:33.741Z,14.67
2018-07-11T05:57:01.044Z,13.20
2018-07-11T05:59:28.148Z,14.33
2018-07-11T06:01:55.264Z,14.20
2018-07-11T06:04:22.367Z,12.67
2018-07-11T06:06:49.996Z,13.27
2018-07-11T06:09:17.175Z,13.23
2018-07-11T06:11:44.354Z,12.90
2018-07-11T06:14:11.544Z,12.30
2018-07-11T06:16:38.900Z,12.00
2018-07-11T06:19:06.116Z,13.73
2018-07-11T06:21:33.301Z,13.00
2018-07-11T06:24:00.434Z,12.50
2018-07-11T06:26:27.619Z,11.83
2018-07-11T06:28:55.529Z,11.80
2018-07-11T06:31:22.771Z,11.33
2018-07-11T06:33:49.982Z,12.03
2018-07-11T06:36:17.163Z,12.37
2018-07-11T06:38:44.286Z,11.67
2018-07-11T06:41:12.329Z,11.73
2018-07-11T06:43:39.405Z,11.10
2018-07-11T06:46:06.556Z,11.10
2018-07-11T06:48:33.664Z,10.13
2018-07-11T06:51:00.724Z,11.17
2018-07-11T06:53:27.896Z,11.67
2018-07-11T06:55:55.002Z,10.50
2018-07-11T06:58:22.905Z,11.87
2018-07-11T07:00:50.032Z,10.40
2018-07-11T07:03:17.289Z,10.87
2018-07-11T07:05:44.515Z,10.90
2018-07-11T07:08:11.672Z,10.57
2018-07-11T07:10:45.579Z,11.00
2018-07-11T07:13:12.751Z,10.53
2018-07-11T07:15:39.938Z,10.47
2018-07-11T07:18:07.031Z,10.07
2018-07-11T07:20:34.174Z,10.93
2018-07-11T07:23:01.280Z,10.70
2018-07-11T07:25:28.598Z,10.20
2018-07-11T07:27:55.716Z,10.10
2018-07-11T07:30:22.981Z,10.60
2018-07-11T07:32:50.056Z,9.87
2018-07-11T07:35:17.183Z,9.13
2018-07-11T07:37:44.282Z,10.23
2018-07-11T07:40:11.428Z,9.13
2018-07-11T07:42:38.494Z,9.47
2018-07-11T07:45:05.579Z,8.77
2018-07-11T07:47:38.321Z,9.40
2018-07-11T07:50:05.598Z,9.90
2018-07-11T07:52:32.725Z,9.23
2018-07-11T07:54:59.842Z,9.70
2018-07-11T07:57:27.820Z,9.00
2018-07-11T07:59:54.973Z,9.50
2018-07-11T08:02:22.251Z,9.50
2018-07-11T08:04:49.575Z,10.20
2018-07-11T08:07:16.858Z,9.00
2018-07-11T08:09:43.988Z,9.67
2018-07-11T08:12:11.197Z,8.93
2018-07-11T08:14:38.348Z,8.30
2018-07-11T08:17:05.500Z,9.20
2018-07-11T08:19:32.705Z,9.23
2018-07-11T08:22:11.209Z,8.77
2018-07-11T08:24:49.695Z,9.33
2018-07-11T08:29:32.659Z,8.97
2018-07-11T08:32:07.962Z,9.40
2018-07-11T08:36:47.496Z,9.63
2018-07-11T08:43:33.355Z,9.40
2018-07-11T08:46:18.480Z,6.70
2018-07-11T08:48:58.083Z,6.57
2018-07-11T08:51:46.621Z,6.60
2018-07-11T08:54:26.540Z,6.63
2018-07-11T08:57:06.661Z,7.30
2018-07-11T09:01:52.676Z,7.57
2018-07-11T09:05:31.790Z,7.30
2018-07-11T09:09:10.900Z,7.17
2018-07-11T09:11:56.264Z,7.50
2018-07-11T09:14:38.556Z,6.67
2018-07-11T09:17:22.550Z,7.30
2018-07-11T09:19:55.264Z,8.00
2018-07-11T09:23:17.930Z,7.30
2018-07-11T09:25:45.037Z,7.27
2018-07-11T09:28:12.102Z,7.63
2018-07-11T09:30:40.071Z,7.83
2018-07-11T09:33:07.293Z,7.10
2018-07-11T09:35:34.683Z,7.63
2018-07-11T09:38:04.186Z,7.20
2018-07-11T09:40:31.418Z,6.70
2018-07-11T09:42:58.514Z,7.27
2018-07-11T09:45:25.847Z,8.10
2018-07-11T09:47:53.605Z,7.03
2018-07-11T09:50:21.145Z,7.07
2018-07-11T09:52:48.238Z,7.50
2018-07-11T09:55:15.390Z,7.50
2018-07-11T09:57:42.956Z,7.10
2018-07-11T10:00:15.664Z,8.30
2018-07-11T10:02:43.799Z,7.90
2018-07-11T10:05:10.911Z,6.53
2018-07-11T10:07:38.759Z,7.23
2018-07-11T10:10:05.874Z,7.10
2018-07-11T10:12:33.181Z,7.20
2018-07-11T10:15:01.042Z,7.53
2018-07-11T10:17:28.203Z,7.47
2018-07-11T10:19:57.245Z,6.70
2018-07-11T10:22:24.543Z,6.37
2018-07-11T10:24:51.681Z,5.63
2018-07-11T10:27:19.062Z,6.80
2018-07-11T10:29:46.342Z,5.50
2018-07-11T10:32:13.559Z,6.07
2018-07-11T10:34:40.768Z,6.30
2018-07-11T10:37:07.826Z,6.57
2018-07-11T10:39:35.051Z,6.33
2018-07-11T10:42:02.195Z,6.77
2018-07-11T10:44:29.431Z,5.73
2018-07-11T10:47:01.179Z,6.40
2018-07-11T10:49:28.236Z,6.10
2018-07-11T10:51:55.566Z,6.70
2018-07-11T10:54:22.645Z,7.00
2018-07-11T10:56:49.952Z,5.67
2018-07-11T10:59:17.082Z,6.10
2018-07-11T11:01:44.643Z,6.23
2018-07-11T11:04:13.572Z,5.90
2018-07-11T11:06:40.736Z,5.10
2018-07-11T11:09:08.420Z,5.40
2018-07-11T11:11:35.594Z,5.10
2018-07-11T11:14:02.861Z,5.37
2018-07-11T11:16:29.977Z,5.20
2018-07-11T11:18:57.215Z,5.97
2018-07-11T11:21:24.694Z,5.63
2018-07-11T11:23:51.852Z,5.73
2018-07-11T11:26:19.119Z,5.70
2018-07-11T11:28:46.322Z,5.00
2018-07-11T11:31:13.580Z,6.67
2018-07-11T11:33:40.716Z,5.70
2018-07-11T11:36:08.094Z,4.80
2018-07-11T11:38:35.196Z,5.00
2018-07-11T11:41:02.428Z,4.53
2018-07-11T11:43:29.983Z,5.10
2018-07-11T11:45:57.175Z,4.40
2018-07-11T11:48:24.367Z,4.40
2018-07-11T11:50:51.518Z,4.17
2018-07-11T11:53:18.697Z,4.73
2018-07-11T11:55:45.901Z,5.17
2018-07-11T11:58:13.046Z,4.50
2018-07-11T12:00:40.204Z,5.27
2018-07-11T12:03:07.357Z,5.20
2018-07-11T12:05:34.534Z,4.53
2018-07-11T12:08:01.664Z,4.40
2018-07-11T12:10:28.803Z,4.87
2018-07-11T12:12:55.886Z,4.73
2018-07-11T12:15:22.978Z,5.50
2018-07-11T12:17:50.699Z,6.33
2018-07-11T12:20:17.907Z,5.93
2018-07-11T12:22:45.143Z,6.27
2018-07-11T12:25:12.284Z,6.23
2018-07-11T12:27:39.624Z,5.93
2018-07-11T12:30:07.260Z,5.53
2018-07-11T12:32:34.393Z,7.20
2018-07-11T12:35:02.201Z,6.40
2018-07-11T12:37:29.284Z,6.50
2018-07-11T12:39:56.415Z,7.60
2018-07-11T12:42:23.570Z,5.77
2018-07-11T12:44:51.075Z,6.27
2018-07-11T12:47:24.033Z,6.00
2018-07-11T12:49:51.510Z,5.87
2018-07-11T12:52:18.660Z,6.47
2018-07-11T12:54:45.841Z,5.50
2018-07-11T12:57:12.953Z,5.97
2018-07-11T12:59:40.100Z,5.90
2018-07-11T13:02:07.346Z,6.30
2018-07-11T13:04:34.467Z,5.63
2018-07-11T13:07:01.759Z,5.70
2018-07-11T13:09:28.904Z,5.50
2018-07-11T13:11:56.085Z,5.83
2018-07-11T13:14:23.201Z,5.33
2018-07-11T13:16:50.343Z,4.83
2018-07-11T13:19:17.976Z,5.60
2018-07-11T13:21:45.476Z,5.10
2018-07-11T13:24:12.713Z,5.03
2018-07-11T13:26:39.968Z,4.67
2018-07-11T13:29:07.133Z,5.57
2018-07-11T13:31:34.514Z,5.97
2018-07-11T13:34:01.641Z,5.13
2018-07-11T13:36:29.752Z,5.63
2018-07-11T13:38:56.883Z,5.10
2018-07-11T13:41:24.037Z,4.93
2018-07-11T13:43:51.182Z,5.13
2018-07-11T13:46:18.405Z,5.37
2018-07-11T13:48:45.476Z,4.80
2018-07-11T13:51:12.596Z,5.70
2018-07-11T13:53:39.796Z,5.60
2018-07-11T13:56:06.960Z,5.60
2018-07-11T13:58:34.077Z,5.90
2018-07-11T14:01:01.355Z,5.23
2018-07-11T14:03:28.413Z,5.70
2018-07-11T14:05:55.465Z,5.80
2018-07-11T14:08:22.616Z,4.90
2018-07-11T14:10:49.727Z,5.60
2018-07-11T14:13:16.989Z,5.17
2018-07-11T14:15:44.193Z,4.97
2018-07-11T14:18:13.064Z,5.20
2018-07-11T14:20:41.060Z,5.10
2018-07-11T14:23:08.496Z,6.47
2018-07-11T14:25:37.770Z,5.70
2018-07-11T14:28:05.567Z,5.87
2018-07-11T14:30:34.188Z,5.97
2018-07-11T14:33:03.767Z,5.77
2018-07-11T14:35:31.980Z,5.40
2018-07-11T14:38:00.091Z,5.70
2018-07-11T14:40:27.197Z,6.20
2018-07-11T14:42:55.624Z,6.20
2018-07-11T14:45:22.752Z,6.50
2018-07-11T14:47:55.584Z,7.00
2018-07-11T14:50:22.804Z,7.60
2018-07-11T14:52:50.843Z,7.20
2018-07-11T14:55:18.370Z,6.63
2018-07-11T14:57:45.973Z,7.10
2018-07-11T15:00:13.122Z,7.13
2018-07-11T15:02:40.378Z,6.57
2018-07-11T15:05:07.704Z,7.00
2018-07-11T15:07:34.856Z,7.00
2018-07-11T15:10:02.268Z,6.90
2018-07-11T15:12:29.712Z,6.93
2018-07-11T15:14:57.008Z,7.63
2018-07-11T15:17:24.253Z,7.57
2018-07-11T15:19:51.468Z,6.60
2018-07-11T15:22:19.139Z,6.70
2018-07-11T15:24:46.428Z,7.07
2018-07-11T15:27:13.995Z,6.67
2018-07-11T15:29:41.188Z,6.20
2018-07-11T15:32:08.844Z,6.90
2018-07-11T15:34:35.989Z,7.50
2018-07-11T15:37:03.400Z,6.70
2018-07-11T15:39:30.602Z,5.87
2018-07-11T15:41:57.823Z,5.20
2018-07-11T15:44:24.956Z,5.50
2018-07-11T15:46:52.124Z,4.90
2018-07-11T15:49:19.332Z,6.20
2018-07-11T15:51:46.664Z,6.13
2018-07-11T15:54:13.854Z,6.87
2018-07-11T15:56:41.489Z,7.03
2018-07-11T15:59:09.917Z,7.87
2018-07-11T16:01:42.084Z,9.70
2018-07-11T16:04:09.262Z,8.50
2018-07-11T16:06:36.380Z,8.13
2018-07-11T16:09:04.122Z,8.47
2018-07-11T16:11:31.224Z,9.60
2018-07-11T16:13:58.361Z,9.43
2018-07-11T16:16:25.530Z,9.43
2018-07-11T16:18:52.733Z,10.13
2018-07-11T16:21:19.898Z,10.50
2018-07-11T16:23:47.149Z,9.97
2018-07-11T16:26:14.786Z,10.20
2018-07-11T16:28:42.937Z,10.80
2018-07-11T16:31:10.630Z,11.47
2018-07-11T16:33:37.867Z,11.30
2018-07-11T16:36:05.029Z,11.20
2018-07-11T16:38:32.187Z,11.30
2018-07-11T16:40:59.628Z,11.23
2018-07-11T16:43:26.745Z,11.80
2018-07-11T16:45:55.087Z,11.93
2018-07-11T16:48:22.189Z,12.53
2018-07-11T16:50:49.382Z,13.20
2018-07-11T16:53:17.177Z,12.30
2018-07-11T16:55:46.066Z,11.87
2018-07-11T16:58:23.013Z,12.90
2018-07-11T17:00:50.804Z,12.47
2018-07-11T17:03:18.064Z,12.90
2018-07-11T17:06:07.305Z,11.93
2018-07-11T17:08:36.930Z,13.07
2018-07-11T17:11:13.813Z,13.27
2018-07-11T17:13:45.724Z,13.20
2018-07-11T17:16:13.154Z,12.57
2018-07-11T17:18:44.566Z,11.00
2018-07-11T17:21:17.368Z,12.30
2018-07-11T17:23:47.766Z,12.97
2018-07-11T17:26:15.141Z,15.00
2018-07-11T17:28:42.313Z,12.77
2018-07-11T17:31:09.440Z,12.43
2018-07-11T17:33:36.560Z,15.00
2018-07-11T17:36:03.679Z,13.77
2018-07-11T17:38:31.294Z,14.40
2018-07-11T17:41:00.284Z,14.53
2018-07-11T17:43:31.789Z,14.10
2018-07-11T17:45:59.002Z,15.27
2018-07-11T17:48:39.438Z,15.73
2018-07-11T17:52:21.189Z,15.47
2018-07-11T17:55:06.737Z,14.70
2018-07-11T17:57:40.715Z,15.40
2018-07-11T18:00:08.459Z,14.13
2018-07-11T18:02:45.777Z,14.40
2018-07-11T18:05:20.446Z,13.50
2018-07-11T18:07:50.717Z,13.23
2018-07-11T18:10:30.314Z,13.77
2018-07-11T18:13:02.096Z,14.63
2018-07-11T18:15:36.288Z,14.27
2018-07-11T18:18:15.598Z,14.93
2018-07-11T18:22:57.992Z,15.50
2018-07-11T18:25:40.765Z,14.87
2018-07-11T18:29:16.471Z,14.63
2018-07-11T18:31:51.826Z,14.70
2018-07-11T18:34:37.465Z,15.03
2018-07-11T18:37:13.191Z,16.60
2018-07-11T18:40:09.304Z,17.93
2018-07-11T18:42:40.393Z,17.53
2018-07-11T18:45:23.734Z,16.60
2018-07-11T18:47:57.757Z,14.97
2018-07-11T18:50:45.544Z,17.73
2018-07-11T18:53:22.480Z,15.40
2018-07-11T18:56:01.021Z,15.00
2018-07-11T18:58:39.749Z,17.27
2018-07-11T19:01:17.564Z,15.63
2018-07-11T19:05:54.683Z,17.37
2018-07-11T19:09:00.760Z,17.57
2018-07-11T19:11:32.898Z,18.67
2018-07-11T19:14:03.511Z,18.23
2018-07-11T19:16:41.591Z,19.40
2018-07-11T19:19:11.243Z,19.50
2018-07-11T19:21:49.091Z,20.03
2018-07-11T19:24:16.464Z,19.40
2018-07-11T19:26:58.355Z,19.43
2018-07-11T19:30:03.802Z,19.13
2018-07-11T19:32:37.546Z,19.80
2018-07-11T19:37:18.501Z,19.63
2018-07-11T19:39:56.922Z,19.13
2018-07-11T19:42:36.373Z,19.00
2018-07-11T19:45:26.537Z,20.40
2018-07-11T19:48:06.064Z,20.10
2018-07-11T19:50:38.981Z,19.90
2018-07-11T19:53:08.636Z,18.10
2018-07-11T19:55:47.133Z,18.10
2018-07-11T19:58:14.918Z,19.23
2018-07-11T20:00:42.322Z,20.50
2018-07-11T20:03:09.608Z,19.33
2018-07-11T20:05:37.105Z,19.60
2018-07-11T20:08:05.255Z,18.67
2018-07-11T20:10:33.649Z,17.27
2018-07-11T20:13:01.460Z,18.67
2018-07-11T20:15:29.138Z,18.03
2018-07-11T20:17:57.618Z,17.87
2018-07-11T20:20:25.572Z,17.53
2018-07-11T20:22:53.810Z,16.67
2018-07-11T20:25:23.100Z,17.80
2018-07-11T20:27:50.363Z,16.67
2018-07-11T20:30:18.388Z,16.70
2018-07-11T20:32:45.580Z,16.80
2018-07-11T20:35:12.894Z,16.50
2018-07-11T20:37:40.098Z,16.23
2018-07-11T20:40:08.296Z,17.10
2018-07-11T20:42:35.735Z,16.17
2018-07-11T20:45:03.377Z,15.00
2018-07-11T20:47:30.633Z,18.47
2018-07-11T20:49:58.101Z,19.60
2018-07-11T20:52:25.386Z,19.83
2018-07-11T20:54:53.231Z,21.13
2018-07-11T20:57:20.647Z,20.83
2018-07-11T21:00:01.011Z,21.93
2018-07-11T21:02:35.419Z,21.00
2018-07-11T21:06:16.655Z,23.53
2018-07-11T21:09:28.972Z,23.73
2018-07-11T21:12:06.971Z,24.63
2018-07-11T21:16:46.277Z,24.10
2018-07-11T21:19:13.416Z,24.93
2018-07-11T21:21:41.519Z,23.70
2018-07-11T21:24:09.351Z,25.00
2018-07-11T21:26:37.128Z,25.37
2018-07-11T21:29:04.409Z,23.23
2018-07-11T21:31:31.968Z,24.50
2018-07-11T21:33:59.127Z,24.97
2018-07-11T21:36:26.239Z,24.30
2018-07-11T21:38:53.564Z,25.07
2018-07-11T21:41:20.846Z,25.37
2018-07-11T21:43:48.024Z,25.37
2018-07-11T21:46:15.319Z,26.47
2018-07-11T21:48:46.186Z,25.57
2018-07-11T21:51:13.411Z,26.20
2018-07-11T21:53:40.488Z,27.07
2018-07-11T21:56:07.814Z,25.87
2018-07-11T21:58:35.849Z,25.90
2018-07-11T22:01:04.788Z,27.07
2018-07-11T22:03:31.958Z,27.50
2018-07-11T22:05:59.349Z,29.03
2018-07-11T22:08:27.202Z,28.80
2018-07-11T22:10:54.321Z,29.13
2018-07-11T22:13:21.552Z,29.50
2018-07-11T22:15:48.713Z,30.07
2018-07-11T22:18:27.196Z,29.80
2018-07-11T22:20:53.408Z,28.67
2018-07-11T22:23:19.680Z,28.97
2018-07-11T22:25:45.876Z,29.90
2018-07-11T22:28:12.076Z,30.13
2018-07-11T22:30:38.290Z,27.57
2018-07-11T22:33:04.500Z,28.27
2018-07-11T22:35:30.714Z,29.10
2018-07-11T22:37:57.412Z,30.20
2018-07-11T22:40:25.065Z,30.47
2018-07-11T22:42:51.474Z,28.60
2018-07-11T22:45:17.961Z,30.17
2018-07-11T22:47:44.358Z,30.57
2018-07-11T22:50:10.643Z,29.43
2018-07-11T22:52:36.934Z,27.70
2018-07-11T22:55:03.075Z,29.80
2018-07-11T22:57:29.279Z,29.17
2018-07-11T22:59:55.507Z,30.63
2018-07-11T23:02:21.723Z,29.50
2018-07-11T23:04:47.949Z,29.90
2018-07-11T23:07:14.203Z,29.50
2018-07-11T23:09:40.416Z,31.17
2018-07-11T23:12:06.603Z,28.87
2018-07-11T23:14:33.529Z,30.10
2018-07-11T23:17:00.697Z,30.70
2018-07-11T23:19:27.092Z,28.20
2018-07-11T23:21:53.300Z,28.77
2018-07-11T23:24:19.494Z,30.87
2018-07-11T23:26:45.917Z,29.77
2018-07-11T23:29:12.212Z,28.90
2018-07-11T23:31:38.408Z,29.50
2018-07-11T23:34:05.090Z,29.53
2018-07-11T23:36:31.522Z,28.87
2018-07-11T23:38:58.054Z,30.27
2018-07-11T23:41:24.260Z,28.80
2018-07-11T23:43:50.910Z,28.70
2018-07-11T23:46:17.575Z,29.40
2018-07-11T23:48:43.780Z,28.93
2018-07-11T23:51:09.962Z,29.53
2018-07-11T23:53:36.152Z,30.30
2018-07-11T23:56:02.368Z,29.93
2018-07-11T23:58:28.591Z,30.23
